ANA16 RJTT-RJOO
Flight info
| Callsign | ANA16 |
|---|---|
| Flight time | 0h 47m |
| Altitude | 26000 |
| Route | LAXAS Y56 TOHME Y54 KOHWA Y546 AGPUK MIRAI ABENO IKOMA |
| Aircraft | B772/H-SDE1E2E3FGHIJ2J3J5M1P2RWY/LB1D1 |
Departure
| Time | 2026-05-05 12:36 |
|---|---|
| Airport | Tokyo Haneda International Airport (RJTT) |
Arrival
| Time | 2026-05-05 13:23 |
|---|---|
| Airport | Osaka Itami International Airport (RJOO) |
| Time | Latitude | Longitude | Altitude | Speed | Heading |
|---|---|---|---|---|---|
| 2026-05-05 12:14 | 35.55269 | 139.78879 | 32 ft | 0 kts | 240° |
| 2026-05-05 12:25 | 35.55277 | 139.78895 | 31 ft | 4 kts | 240° |
| 2026-05-05 12:25 | 35.55289 | 139.78920 | 30 ft | 2 kts | 240° |
| 2026-05-05 12:25 | 35.55297 | 139.78948 | 30 ft | 4 kts | 276° |
| 2026-05-05 12:25 | 35.55287 | 139.78973 | 30 ft | 4 kts | 326° |
| 2026-05-05 12:26 | 35.55270 | 139.78985 | 31 ft | 0 kts | 330° |
| 2026-05-05 12:30 | 35.55279 | 139.78979 | 31 ft | 4 kts | 330° |
| 2026-05-05 12:30 | 35.55321 | 139.78949 | 32 ft | 8 kts | 330° |
| 2026-05-05 12:31 | 35.55370 | 139.78927 | 32 ft | 8 kts | 2° |
| 2026-05-05 12:31 | 35.55412 | 139.78964 | 31 ft | 8 kts | 56° |
| 2026-05-05 12:31 | 35.55439 | 139.79019 | 31 ft | 8 kts | 60° |
| 2026-05-05 12:31 | 35.55466 | 139.79076 | 30 ft | 8 kts | 59° |
| 2026-05-05 12:32 | 35.55494 | 139.79134 | 30 ft | 8 kts | 57° |
| 2026-05-05 12:32 | 35.55546 | 139.79143 | 30 ft | 8 kts | 336° |
| 2026-05-05 12:32 | 35.55597 | 139.79105 | 30 ft | 9 kts | 329° |
| 2026-05-05 12:32 | 35.55657 | 139.79062 | 30 ft | 11 kts | 330° |
| 2026-05-05 12:33 | 35.55725 | 139.79013 | 30 ft | 12 kts | 330° |
| 2026-05-05 12:33 | 35.55808 | 139.78955 | 29 ft | 18 kts | 330° |
| 2026-05-05 12:33 | 35.55944 | 139.78858 | 28 ft | 24 kts | 330° |
| 2026-05-05 12:33 | 35.56089 | 139.78754 | 28 ft | 24 kts | 330° |
| 2026-05-05 12:34 | 35.56235 | 139.78652 | 29 ft | 24 kts | 329° |
| 2026-05-05 12:34 | 35.56368 | 139.78556 | 29 ft | 10 kts | 330° |
| 2026-05-05 12:34 | 35.56426 | 139.78571 | 30 ft | 10 kts | 46° |
| 2026-05-05 12:34 | 35.56462 | 139.78639 | 32 ft | 9 kts | 59° |
| 2026-05-05 12:35 | 35.56489 | 139.78711 | 34 ft | 9 kts | 90° |
| 2026-05-05 12:35 | 35.56449 | 139.78755 | 34 ft | 8 kts | 150° |
| 2026-05-05 12:35 | 35.56387 | 139.78799 | 33 ft | 21 kts | 150° |
| 2026-05-05 12:35 | 35.56116 | 139.78990 | 31 ft | 77 kts | 150° |
| 2026-05-05 12:36 | 35.55439 | 139.79473 | 33 ft | 146 kts | 149° |
| 2026-05-05 12:36 | 35.54488 | 139.80172 | 576 ft | 162 kts | 150° |
| 2026-05-05 12:36 | 35.53497 | 139.80884 | 1403 ft | 163 kts | 154° |
| 2026-05-05 12:36 | 35.52492 | 139.81578 | 1917 ft | 173 kts | 154° |
| 2026-05-05 12:37 | 35.51368 | 139.82351 | 2123 ft | 197 kts | 154° |
| 2026-05-05 12:37 | 35.50102 | 139.83241 | 2321 ft | 222 kts | 153° |
| 2026-05-05 12:37 | 35.48711 | 139.84226 | 2743 ft | 236 kts | 153° |
| 2026-05-05 12:37 | 35.47258 | 139.85256 | 3280 ft | 245 kts | 153° |
| 2026-05-05 12:38 | 35.45738 | 139.86241 | 3800 ft | 248 kts | 164° |
| 2026-05-05 12:38 | 35.44032 | 139.86339 | 4348 ft | 249 kts | 195° |
| 2026-05-05 12:38 | 35.42458 | 139.85443 | 5036 ft | 253 kts | 215° |
| 2026-05-05 12:38 | 35.41050 | 139.84103 | 5631 ft | 259 kts | 218° |
| 2026-05-05 12:39 | 35.39627 | 139.82717 | 6293 ft | 262 kts | 218° |
| 2026-05-05 12:39 | 35.38185 | 139.81312 | 6933 ft | 267 kts | 218° |
| 2026-05-05 12:39 | 35.36733 | 139.79901 | 7651 ft | 266 kts | 218° |
| 2026-05-05 12:39 | 35.35267 | 139.78484 | 8265 ft | 272 kts | 218° |
| 2026-05-05 12:40 | 35.33768 | 139.77041 | 8875 ft | 276 kts | 218° |
| 2026-05-05 12:40 | 35.32256 | 139.75589 | 9625 ft | 277 kts | 218° |
| 2026-05-05 12:40 | 35.30733 | 139.74113 | 10257 ft | 281 kts | 219° |
| 2026-05-05 12:40 | 35.29225 | 139.72557 | 10627 ft | 297 kts | 220° |
| 2026-05-05 12:41 | 35.27591 | 139.70839 | 10803 ft | 322 kts | 220° |
| 2026-05-05 12:41 | 35.25828 | 139.68982 | 11009 ft | 346 kts | 220° |
| 2026-05-05 12:41 | 35.23971 | 139.67030 | 11595 ft | 358 kts | 220° |
| 2026-05-05 12:41 | 35.22056 | 139.65024 | 12363 ft | 366 kts | 220° |
| 2026-05-05 12:42 | 35.20110 | 139.62990 | 13333 ft | 370 kts | 220° |
| 2026-05-05 12:42 | 35.18143 | 139.60938 | 14286 ft | 374 kts | 220° |
| 2026-05-05 12:42 | 35.16154 | 139.58866 | 15149 ft | 378 kts | 220° |
| 2026-05-05 12:42 | 35.14146 | 139.56775 | 16021 ft | 381 kts | 220° |
| 2026-05-05 12:43 | 35.12122 | 139.54669 | 16891 ft | 383 kts | 220° |
| 2026-05-05 12:43 | 35.10086 | 139.52554 | 17744 ft | 387 kts | 220° |
| 2026-05-05 12:43 | 35.08177 | 139.50263 | 18353 ft | 389 kts | 233° |
| 2026-05-05 12:43 | 35.06928 | 139.47310 | 18962 ft | 396 kts | 252° |
| 2026-05-05 12:44 | 35.06344 | 139.44041 | 19727 ft | 393 kts | 258° |
| 2026-05-05 12:44 | 35.06005 | 139.41830 | 20276 ft | 393 kts | 258° |
| 2026-05-05 12:44 | 35.05319 | 139.37511 | 21420 ft | 390 kts | 258° |
| 2026-05-05 12:44 | 35.04969 | 139.35360 | 21993 ft | 389 kts | 258° |
| 2026-05-05 12:45 | 35.04251 | 139.31034 | 23116 ft | 389 kts | 258° |
| 2026-05-05 12:45 | 35.03708 | 139.27802 | 23937 ft | 388 kts | 258° |
| 2026-05-05 12:45 | 35.03167 | 139.24599 | 24838 ft | 381 kts | 258° |
| 2026-05-05 12:45 | 35.02818 | 139.22518 | 25483 ft | 375 kts | 258° |
| 2026-05-05 12:46 | 35.02303 | 139.19422 | 26127 ft | 371 kts | 258° |
| 2026-05-05 12:46 | 35.01794 | 139.16351 | 26287 ft | 369 kts | 258° |
| 2026-05-05 12:46 | 35.01113 | 139.12248 | 26286 ft | 367 kts | 258° |
| 2026-05-05 12:46 | 35.00777 | 139.10231 | 26286 ft | 367 kts | 258° |
| 2026-05-05 12:47 | 35.00269 | 139.07181 | 26296 ft | 367 kts | 258° |
| 2026-05-05 12:47 | 34.99760 | 139.04132 | 26288 ft | 367 kts | 258° |
| 2026-05-05 12:47 | 34.99250 | 139.01083 | 26293 ft | 367 kts | 258° |
| 2026-05-05 12:47 | 34.98808 | 138.98018 | 26293 ft | 367 kts | 262° |
| 2026-05-05 12:48 | 34.98592 | 138.94910 | 26295 ft | 368 kts | 265° |
| 2026-05-05 12:48 | 34.98445 | 138.91791 | 26290 ft | 368 kts | 265° |
| 2026-05-05 12:48 | 34.98287 | 138.88679 | 26292 ft | 369 kts | 264° |
| 2026-05-05 12:48 | 34.98124 | 138.85560 | 26279 ft | 368 kts | 264° |
| 2026-05-05 12:49 | 34.97958 | 138.82445 | 26289 ft | 368 kts | 264° |
| 2026-05-05 12:49 | 34.97794 | 138.79329 | 26285 ft | 369 kts | 264° |
| 2026-05-05 12:49 | 34.97627 | 138.76208 | 26287 ft | 369 kts | 264° |
| 2026-05-05 12:49 | 34.97459 | 138.73085 | 26287 ft | 369 kts | 264° |
| 2026-05-05 12:50 | 34.97291 | 138.69965 | 26290 ft | 369 kts | 264° |
| 2026-05-05 12:50 | 34.97122 | 138.66845 | 26288 ft | 369 kts | 264° |
| 2026-05-05 12:50 | 34.96953 | 138.63733 | 26276 ft | 369 kts | 264° |
| 2026-05-05 12:50 | 34.96782 | 138.60611 | 26283 ft | 369 kts | 264° |
| 2026-05-05 12:51 | 34.96611 | 138.57497 | 26289 ft | 369 kts | 264° |
| 2026-05-05 12:51 | 34.96438 | 138.54380 | 26286 ft | 369 kts | 264° |
| 2026-05-05 12:51 | 34.96265 | 138.51264 | 26297 ft | 369 kts | 264° |
| 2026-05-05 12:51 | 34.96091 | 138.48140 | 26298 ft | 369 kts | 264° |
| 2026-05-05 12:52 | 34.95916 | 138.45022 | 26293 ft | 369 kts | 264° |
| 2026-05-05 12:52 | 34.95741 | 138.41899 | 26292 ft | 369 kts | 264° |
| 2026-05-05 12:52 | 34.95565 | 138.38782 | 26281 ft | 369 kts | 264° |
| 2026-05-05 12:52 | 34.95387 | 138.35658 | 26284 ft | 369 kts | 264° |
| 2026-05-05 12:53 | 34.95209 | 138.32539 | 26294 ft | 369 kts | 264° |
| 2026-05-05 12:53 | 34.95032 | 138.29412 | 26292 ft | 369 kts | 264° |
| 2026-05-05 12:53 | 34.94851 | 138.26285 | 26295 ft | 370 kts | 264° |
| 2026-05-05 12:53 | 34.94672 | 138.23200 | 26290 ft | 370 kts | 264° |
| 2026-05-05 12:54 | 34.94309 | 138.16955 | 26263 ft | 369 kts | 264° |
| 2026-05-05 12:54 | 34.94129 | 138.13843 | 26278 ft | 368 kts | 264° |
| 2026-05-05 12:54 | 34.93947 | 138.10729 | 26275 ft | 369 kts | 264° |
| 2026-05-05 12:55 | 34.93763 | 138.07605 | 26268 ft | 369 kts | 264° |
| 2026-05-05 12:55 | 34.93579 | 138.04485 | 26263 ft | 369 kts | 264° |
| 2026-05-05 12:55 | 34.93395 | 138.01370 | 26268 ft | 369 kts | 264° |
| 2026-05-05 12:55 | 34.93211 | 137.98251 | 26269 ft | 369 kts | 264° |
| 2026-05-05 12:56 | 34.93025 | 137.95132 | 26266 ft | 369 kts | 263° |
| 2026-05-05 12:56 | 34.92839 | 137.92014 | 26271 ft | 369 kts | 264° |
| 2026-05-05 12:56 | 34.92652 | 137.88897 | 26278 ft | 369 kts | 263° |
| 2026-05-05 12:56 | 34.92465 | 137.85779 | 26267 ft | 369 kts | 263° |
| 2026-05-05 12:57 | 34.92277 | 137.82665 | 26268 ft | 369 kts | 264° |
| 2026-05-05 12:57 | 34.92089 | 137.79550 | 26258 ft | 369 kts | 264° |
| 2026-05-05 12:57 | 34.91913 | 137.76442 | 26269 ft | 368 kts | 264° |
| 2026-05-05 12:57 | 34.91734 | 137.73327 | 26256 ft | 368 kts | 264° |
| 2026-05-05 12:58 | 34.91484 | 137.70229 | 26268 ft | 366 kts | 259° |
| 2026-05-05 12:58 | 34.90999 | 137.67186 | 26264 ft | 366 kts | 256° |
| 2026-05-05 12:58 | 34.90361 | 137.64184 | 26267 ft | 366 kts | 252° |
| 2026-05-05 12:58 | 34.89524 | 137.61264 | 26260 ft | 366 kts | 250° |
| 2026-05-05 12:59 | 34.88635 | 137.58358 | 26257 ft | 366 kts | 249° |
| 2026-05-05 12:59 | 34.87741 | 137.55449 | 26266 ft | 367 kts | 250° |
| 2026-05-05 12:59 | 34.86856 | 137.52542 | 26261 ft | 367 kts | 250° |
| 2026-05-05 13:00 | 34.85093 | 137.46716 | 26265 ft | 366 kts | 250° |
| 2026-05-05 13:00 | 34.84245 | 137.43795 | 26256 ft | 366 kts | 251° |
| 2026-05-05 13:01 | 34.81757 | 137.35003 | 26255 ft | 366 kts | 251° |
| 2026-05-05 13:01 | 34.80925 | 137.32076 | 26253 ft | 366 kts | 250° |
| 2026-05-05 13:01 | 34.80091 | 137.29150 | 26250 ft | 366 kts | 250° |
| 2026-05-05 13:01 | 34.79255 | 137.26224 | 26250 ft | 366 kts | 250° |
| 2026-05-05 13:02 | 34.78417 | 137.23299 | 26252 ft | 366 kts | 250° |
| 2026-05-05 13:02 | 34.77580 | 137.20379 | 26250 ft | 366 kts | 250° |
| 2026-05-05 13:02 | 34.76759 | 137.17517 | 26240 ft | 358 kts | 250° |
| 2026-05-05 13:02 | 34.75948 | 137.14694 | 26233 ft | 341 kts | 250° |
| 2026-05-05 13:03 | 34.75180 | 137.12024 | 26184 ft | 329 kts | 250° |
| 2026-05-05 13:03 | 34.74425 | 137.09402 | 25757 ft | 328 kts | 250° |
| 2026-05-05 13:03 | 34.73682 | 137.06823 | 25362 ft | 326 kts | 250° |
| 2026-05-05 13:03 | 34.72924 | 137.04194 | 24924 ft | 326 kts | 250° |
| 2026-05-05 13:04 | 34.72184 | 137.01628 | 24499 ft | 326 kts | 250° |
| 2026-05-05 13:04 | 34.71433 | 136.99031 | 24073 ft | 326 kts | 250° |
| 2026-05-05 13:04 | 34.70679 | 136.96425 | 23598 ft | 327 kts | 250° |
| 2026-05-05 13:04 | 34.69923 | 136.93816 | 23121 ft | 327 kts | 250° |
| 2026-05-05 13:05 | 34.69165 | 136.91211 | 22676 ft | 327 kts | 250° |
| 2026-05-05 13:05 | 34.68409 | 136.88618 | 22271 ft | 326 kts | 250° |
| 2026-05-05 13:05 | 34.67653 | 136.86026 | 21844 ft | 325 kts | 250° |
| 2026-05-05 13:05 | 34.66899 | 136.83442 | 21467 ft | 324 kts | 250° |
| 2026-05-05 13:06 | 34.66149 | 136.80872 | 21053 ft | 322 kts | 250° |
| 2026-05-05 13:06 | 34.65401 | 136.78312 | 20667 ft | 321 kts | 250° |
| 2026-05-05 13:06 | 34.64654 | 136.75759 | 20276 ft | 320 kts | 250° |
| 2026-05-05 13:06 | 34.63910 | 136.73215 | 19907 ft | 320 kts | 250° |
| 2026-05-05 13:07 | 34.63166 | 136.70675 | 19519 ft | 319 kts | 250° |
| 2026-05-05 13:07 | 34.62422 | 136.68138 | 19135 ft | 319 kts | 249° |
| 2026-05-05 13:07 | 34.61679 | 136.65606 | 18750 ft | 318 kts | 249° |
| 2026-05-05 13:07 | 34.60935 | 136.63072 | 18328 ft | 319 kts | 249° |
| 2026-05-05 13:08 | 34.60190 | 136.60536 | 17886 ft | 318 kts | 249° |
| 2026-05-05 13:08 | 34.59448 | 136.58012 | 17475 ft | 317 kts | 249° |
| 2026-05-05 13:08 | 34.58705 | 136.55490 | 17075 ft | 316 kts | 249° |
| 2026-05-05 13:08 | 34.57967 | 136.52986 | 16672 ft | 315 kts | 248° |
| 2026-05-05 13:09 | 34.57228 | 136.50478 | 16286 ft | 315 kts | 248° |
| 2026-05-05 13:09 | 34.56492 | 136.47984 | 15882 ft | 314 kts | 248° |
| 2026-05-05 13:09 | 34.55757 | 136.45497 | 15482 ft | 313 kts | 248° |
| 2026-05-05 13:09 | 34.55022 | 136.43014 | 15056 ft | 312 kts | 248° |
| 2026-05-05 13:10 | 34.54293 | 136.40545 | 14694 ft | 311 kts | 247° |
| 2026-05-05 13:10 | 34.53563 | 136.38077 | 14300 ft | 310 kts | 247° |
| 2026-05-05 13:10 | 34.52831 | 136.35613 | 13877 ft | 311 kts | 247° |
| 2026-05-05 13:10 | 34.52099 | 136.33150 | 13426 ft | 310 kts | 247° |
| 2026-05-05 13:11 | 34.51469 | 136.30647 | 13022 ft | 312 kts | 254° |
| 2026-05-05 13:11 | 34.51088 | 136.28050 | 12606 ft | 313 kts | 258° |
| 2026-05-05 13:11 | 34.50780 | 136.25442 | 12190 ft | 312 kts | 259° |
| 2026-05-05 13:11 | 34.50476 | 136.22845 | 11794 ft | 311 kts | 258° |
| 2026-05-05 13:12 | 34.50161 | 136.20259 | 11396 ft | 309 kts | 258° |
| 2026-05-05 13:12 | 34.49833 | 136.17676 | 10994 ft | 309 kts | 258° |
| 2026-05-05 13:12 | 34.49498 | 136.15111 | 10626 ft | 308 kts | 258° |
| 2026-05-05 13:12 | 34.49162 | 136.12586 | 10496 ft | 299 kts | 258° |
| 2026-05-05 13:13 | 34.48844 | 136.10171 | 10203 ft | 280 kts | 257° |
| 2026-05-05 13:13 | 34.48669 | 136.07881 | 9941 ft | 271 kts | 273° |
| 2026-05-05 13:13 | 34.49187 | 136.05703 | 9620 ft | 268 kts | 288° |
| 2026-05-05 13:13 | 34.49830 | 136.03566 | 9324 ft | 272 kts | 286° |
| 2026-05-05 13:14 | 34.50457 | 136.01373 | 9026 ft | 279 kts | 286° |
| 2026-05-05 13:14 | 34.51095 | 135.99127 | 8673 ft | 283 kts | 286° |
| 2026-05-05 13:14 | 34.51734 | 135.96873 | 8339 ft | 283 kts | 286° |
| 2026-05-05 13:14 | 34.52370 | 135.94621 | 8007 ft | 282 kts | 286° |
| 2026-05-05 13:15 | 34.53005 | 135.92367 | 7662 ft | 282 kts | 286° |
| 2026-05-05 13:15 | 34.53635 | 135.90123 | 7350 ft | 282 kts | 287° |
| 2026-05-05 13:15 | 34.54264 | 135.87871 | 7019 ft | 282 kts | 286° |
| 2026-05-05 13:15 | 34.54891 | 135.85607 | 6696 ft | 283 kts | 287° |
| 2026-05-05 13:16 | 34.55516 | 135.83345 | 6336 ft | 283 kts | 287° |
| 2026-05-05 13:16 | 34.56140 | 135.81091 | 6082 ft | 279 kts | 287° |
| 2026-05-05 13:16 | 34.56745 | 135.78902 | 6014 ft | 269 kts | 287° |
| 2026-05-05 13:16 | 34.57353 | 135.76700 | 5434 ft | 278 kts | 287° |
| 2026-05-05 13:17 | 34.57949 | 135.74545 | 5047 ft | 262 kts | 287° |
| 2026-05-05 13:17 | 34.58525 | 135.72457 | 4817 ft | 258 kts | 287° |
| 2026-05-05 13:17 | 34.59086 | 135.70421 | 4680 ft | 251 kts | 288° |
| 2026-05-05 13:17 | 34.59631 | 135.68443 | 4568 ft | 243 kts | 288° |
| 2026-05-05 13:18 | 34.60155 | 135.66557 | 4459 ft | 236 kts | 290° |
| 2026-05-05 13:18 | 34.61012 | 135.64885 | 4355 ft | 234 kts | 312° |
| 2026-05-05 13:18 | 34.62141 | 135.63442 | 4146 ft | 241 kts | 314° |
| 2026-05-05 13:18 | 34.63316 | 135.61990 | 3832 ft | 241 kts | 315° |
| 2026-05-05 13:19 | 34.64506 | 135.60551 | 3526 ft | 241 kts | 315° |
| 2026-05-05 13:19 | 34.65674 | 135.59143 | 3182 ft | 230 kts | 315° |
| 2026-05-05 13:19 | 34.66768 | 135.57825 | 2894 ft | 214 kts | 314° |
| 2026-05-05 13:19 | 34.67813 | 135.56563 | 2676 ft | 211 kts | 313° |
| 2026-05-05 13:20 | 34.68853 | 135.55306 | 2362 ft | 207 kts | 313° |
| 2026-05-05 13:20 | 34.69833 | 135.54123 | 2104 ft | 191 kts | 313° |
| 2026-05-05 13:20 | 34.70738 | 135.53030 | 1817 ft | 177 kts | 313° |
| 2026-05-05 13:20 | 34.71576 | 135.52016 | 1574 ft | 163 kts | 313° |
| 2026-05-05 13:21 | 34.72335 | 135.51099 | 1391 ft | 146 kts | 314° |
| 2026-05-05 13:21 | 34.73041 | 135.50244 | 1216 ft | 144 kts | 314° |
| 2026-05-05 13:21 | 34.73748 | 135.49386 | 1019 ft | 144 kts | 314° |
| 2026-05-05 13:21 | 34.74455 | 135.48532 | 815 ft | 142 kts | 315° |
| 2026-05-05 13:22 | 34.75151 | 135.47688 | 642 ft | 140 kts | 315° |
| 2026-05-05 13:22 | 34.75841 | 135.46853 | 459 ft | 139 kts | 316° |
| 2026-05-05 13:22 | 34.76524 | 135.46028 | 279 ft | 138 kts | 316° |
| 2026-05-05 13:22 | 34.77207 | 135.45200 | 97 ft | 140 kts | 315° |
| 2026-05-05 13:23 | 34.77866 | 135.44403 | 45 ft | 121 kts | 315° |
| 2026-05-05 13:23 | 34.78330 | 135.43842 | 46 ft | 67 kts | 315° |
| 2026-05-05 13:23 | 34.78592 | 135.43561 | 48 ft | 41 kts | 336° |
| 2026-05-05 13:23 | 34.78805 | 135.43446 | 48 ft | 26 kts | 336° |
| 2026-05-05 13:24 | 34.78956 | 135.43430 | 51 ft | 20 kts | 17° |
| 2026-05-05 13:24 | 34.79056 | 135.43516 | 51 ft | 16 kts | 58° |
| 2026-05-05 13:24 | 34.79041 | 135.43640 | 52 ft | 16 kts | 135° |
| 2026-05-05 13:24 | 34.78960 | 135.43737 | 50 ft | 16 kts | 136° |
| 2026-05-05 13:25 | 34.78883 | 135.43830 | 49 ft | 11 kts | 129° |
| 2026-05-05 13:25 | 34.78875 | 135.43925 | 50 ft | 12 kts | 90° |
| 2026-05-05 13:25 | 34.78838 | 135.44010 | 48 ft | 12 kts | 133° |
| 2026-05-05 13:25 | 34.78780 | 135.44080 | 48 ft | 12 kts | 135° |
| 2026-05-05 13:26 | 34.78726 | 135.44146 | 48 ft | 6 kts | 135° |
| 2026-05-05 13:26 | 34.78699 | 135.44184 | 47 ft | 6 kts | 111° |
| 2026-05-05 13:26 | 34.78715 | 135.44220 | 46 ft | 5 kts | 56° |
| 2026-05-05 13:26 | 34.78733 | 135.44254 | 47 ft | 3 kts | 56° |
| 2026-05-05 13:27 | 34.78738 | 135.44262 | 47 ft | 0 kts | 56° |